You are not logged in, Click here to log in
ICAO: RJFU Country: 日本長崎縣大村市
Latitude: 32.9136 Longitude: 129.918
Total Arrivals: 10 Total Departures: 9
Latest Arrival: EH783B (RJOO-RJFU)Lun. Wang Latest Departure: 7JB802 (RJFU-RCSS)Lun. Wang
Scenery:
METAR : RJFU 180700Z VRB01KT 9999 FEW025 BKN/// 28/23 Q1006

長崎空港NGS